sensor_id;sensor_type;location;lat;lon;timestamp;P1;durP1;ratioP1;P2;durP2;ratioP2
28170;SDS011;15458;53.346;-1.688;2022-11-04T00:01:43;11.90;;;4.10;;
28170;SDS011;15458;53.346;-1.688;2022-11-04T00:04:11;9.00;;;3.63;;
28170;SDS011;15458;53.346;-1.688;2022-11-04T00:06:38;21.70;;;5.13;;
28170;SDS011;15458;53.346;-1.688;2022-11-04T00:09:05;13.88;;;4.20;;
28170;SDS011;15458;53.346;-1.688;2022-11-04T00:11:32;13.50;;;4.85;;
28170;SDS011;15458;53.346;-1.688;2022-11-04T00:14:17;9.98;;;4.53;;
28170;SDS011;15458;53.346;-1.688;2022-11-04T00:16:43;20.45;;;6.00;;
28170;SDS011;15458;53.346;-1.688;2022-11-04T00:19:27;31.38;;;7.57;;
28170;SDS011;15458;53.346;-1.688;2022-11-04T00:22:13;16.50;;;5.55;;
28170;SDS011;15458;53.346;-1.688;2022-11-04T00:24:57;18.73;;;6.85;;
28170;SDS011;15458;53.346;-1.688;2022-11-04T00:27:41;23.55;;;5.60;;
28170;SDS011;15458;53.346;-1.688;2022-11-04T00:30:27;17.00;;;5.05;;
28170;SDS011;15458;53.346;-1.688;2022-11-04T00:32:53;17.08;;;5.75;;
28170;SDS011;15458;53.346;-1.688;2022-11-04T00:35:37;21.10;;;5.38;;
28170;SDS011;15458;53.346;-1.688;2022-11-04T00:38:02;24.45;;;5.63;;
28170;SDS011;15458;53.346;-1.688;2022-11-04T00:40:28;24.27;;;5.93;;
28170;SDS011;15458;53.346;-1.688;2022-11-04T00:42:54;12.70;;;4.72;;
28170;SDS011;15458;53.346;-1.688;2022-11-04T00:45:19;13.52;;;4.75;;
28170;SDS011;15458;53.346;-1.688;2022-11-04T00:47:45;18.98;;;4.85;;
28170;SDS011;15458;53.346;-1.688;2022-11-04T00:50:11;13.85;;;5.05;;
28170;SDS011;15458;53.346;-1.688;2022-11-04T00:52:36;17.15;;;5.53;;
28170;SDS011;15458;53.346;-1.688;2022-11-04T00:55:02;13.18;;;4.63;;
28170;SDS011;15458;53.346;-1.688;2022-11-04T00:57:28;11.77;;;4.15;;
28170;SDS011;15458;53.346;-1.688;2022-11-04T00:59:54;14.63;;;4.95;;
28170;SDS011;15458;53.346;-1.688;2022-11-04T01:02:20;16.85;;;5.00;;
28170;SDS011;15458;53.346;-1.688;2022-11-04T01:04:46;14.30;;;5.30;;
28170;SDS011;15458;53.346;-1.688;2022-11-04T01:07:12;21.35;;;5.10;;
28170;SDS011;15458;53.346;-1.688;2022-11-04T01:09:37;13.70;;;5.05;;
28170;SDS011;15458;53.346;-1.688;2022-11-04T01:12:03;13.95;;;4.63;;
28170;SDS011;15458;53.346;-1.688;2022-11-04T01:14:29;19.38;;;4.63;;
28170;SDS011;15458;53.346;-1.688;2022-11-04T01:16:55;20.63;;;5.10;;
28170;SDS011;15458;53.346;-1.688;2022-11-04T01:19:20;14.85;;;5.20;;
28170;SDS011;15458;53.346;-1.688;2022-11-04T01:21:49;19.27;;;5.38;;
28170;SDS011;15458;53.346;-1.688;2022-11-04T01:24:15;13.82;;;5.05;;
28170;SDS011;15458;53.346;-1.688;2022-11-04T01:26:41;14.65;;;4.85;;
28170;SDS011;15458;53.346;-1.688;2022-11-04T01:29:07;15.90;;;5.32;;
28170;SDS011;15458;53.346;-1.688;2022-11-04T01:31:33;22.27;;;6.22;;
28170;SDS011;15458;53.346;-1.688;2022-11-04T01:33:58;16.42;;;5.57;;
28170;SDS011;15458;53.346;-1.688;2022-11-04T01:36:24;17.92;;;5.95;;
28170;SDS011;15458;53.346;-1.688;2022-11-04T01:38:51;15.45;;;4.90;;
28170;SDS011;15458;53.346;-1.688;2022-11-04T01:41:29;15.60;;;5.55;;
28170;SDS011;15458;53.346;-1.688;2022-11-04T01:43:57;16.58;;;6.13;;
28170;SDS011;15458;53.346;-1.688;2022-11-04T01:51:57;27.83;;;6.38;;
28170;SDS011;15458;53.346;-1.688;2022-11-04T01:54:31;22.88;;;5.97;;
28170;SDS011;15458;53.346;-1.688;2022-11-04T01:56:57;13.90;;;5.68;;
28170;SDS011;15458;53.346;-1.688;2022-11-04T01:59:31;19.17;;;5.70;;
28170;SDS011;15458;53.346;-1.688;2022-11-04T02:01:59;19.45;;;6.07;;
28170;SDS011;15458;53.346;-1.688;2022-11-04T02:04:25;13.93;;;5.20;;
28170;SDS011;15458;53.346;-1.688;2022-11-04T02:06:56;23.50;;;5.32;;
28170;SDS011;15458;53.346;-1.688;2022-11-04T02:09:24;23.15;;;6.82;;
28170;SDS011;15458;53.346;-1.688;2022-11-04T02:11:52;22.40;;;6.20;;
28170;SDS011;15458;53.346;-1.688;2022-11-04T02:14:37;23.17;;;6.63;;
28170;SDS011;15458;53.346;-1.688;2022-11-04T02:17:53;17.65;;;5.20;;
28170;SDS011;15458;53.346;-1.688;2022-11-04T02:31:10;19.98;;;6.00;;
28170;SDS011;15458;53.346;-1.688;2022-11-04T02:34:01;14.48;;;5.75;;
28170;SDS011;15458;53.346;-1.688;2022-11-04T02:44:50;21.17;;;6.07;;
28170;SDS011;15458;53.346;-1.688;2022-11-04T02:47:26;17.27;;;5.45;;
28170;SDS011;15458;53.346;-1.688;2022-11-04T02:49:54;16.05;;;5.88;;
28170;SDS011;15458;53.346;-1.688;2022-11-04T02:52:32;17.42;;;5.60;;
28170;SDS011;15458;53.346;-1.688;2022-11-04T02:55:10;14.48;;;5.38;;
28170;SDS011;15458;53.346;-1.688;2022-11-04T02:57:41;14.10;;;5.50;;
28170;SDS011;15458;53.346;-1.688;2022-11-04T03:00:08;19.15;;;6.35;;
28170;SDS011;15458;53.346;-1.688;2022-11-04T03:02:41;15.38;;;5.90;;
28170;SDS011;15458;53.346;-1.688;2022-11-04T03:05:15;15.27;;;5.45;;
28170;SDS011;15458;53.346;-1.688;2022-11-04T03:07:43;15.68;;;5.88;;
28170;SDS011;15458;53.346;-1.688;2022-11-04T03:10:13;18.10;;;5.80;;
28170;SDS011;15458;53.346;-1.688;2022-11-04T03:12:47;18.48;;;5.78;;
28170;SDS011;15458;53.346;-1.688;2022-11-04T03:15:34;18.88;;;6.10;;
28170;SDS011;15458;53.346;-1.688;2022-11-04T03:18:09;20.48;;;6.13;;
28170;SDS011;15458;53.346;-1.688;2022-11-04T03:20:48;13.57;;;6.43;;
28170;SDS011;15458;53.346;-1.688;2022-11-04T03:23:15;21.02;;;8.05;;
28170;SDS011;15458;53.346;-1.688;2022-11-04T03:25:45;18.13;;;6.20;;
28170;SDS011;15458;53.346;-1.688;2022-11-04T03:31:05;14.38;;;4.93;;
28170;SDS011;15458;53.346;-1.688;2022-11-04T03:33:47;15.55;;;5.40;;
28170;SDS011;15458;53.346;-1.688;2022-11-04T03:36:18;13.85;;;5.57;;
28170;SDS011;15458;53.346;-1.688;2022-11-04T03:38:45;21.70;;;5.38;;
28170;SDS011;15458;53.346;-1.688;2022-11-04T03:41:23;17.08;;;5.65;;
28170;SDS011;15458;53.346;-1.688;2022-11-04T03:43:55;12.85;;;4.50;;
28170;SDS011;15458;53.346;-1.688;2022-11-04T03:46:21;14.75;;;4.75;;
28170;SDS011;15458;53.346;-1.688;2022-11-04T03:48:47;23.55;;;5.90;;
28170;SDS011;15458;53.346;-1.688;2022-11-04T03:51:16;13.15;;;4.78;;
28170;SDS011;15458;53.346;-1.688;2022-11-04T03:53:42;16.42;;;5.88;;
28170;SDS011;15458;53.346;-1.688;2022-11-04T04:06:53;15.93;;;4.70;;
28170;SDS011;15458;53.346;-1.688;2022-11-04T04:09:36;16.65;;;6.05;;
28170;SDS011;15458;53.346;-1.688;2022-11-04T04:12:16;21.13;;;4.97;;
28170;SDS011;15458;53.346;-1.688;2022-11-04T04:15:17;12.63;;;3.72;;
28170;SDS011;15458;53.346;-1.688;2022-11-04T04:17:54;9.75;;;4.22;;
28170;SDS011;15458;53.346;-1.688;2022-11-04T04:20:27;12.25;;;4.68;;
28170;SDS011;15458;53.346;-1.688;2022-11-04T04:22:57;12.88;;;5.22;;
28170;SDS011;15458;53.346;-1.688;2022-11-04T04:25:28;15.90;;;4.88;;
28170;SDS011;15458;53.346;-1.688;2022-11-04T04:28:14;20.33;;;4.93;;
28170;SDS011;15458;53.346;-1.688;2022-11-04T04:30:42;17.33;;;4.93;;
28170;SDS011;15458;53.346;-1.688;2022-11-04T04:33:18;12.82;;;5.00;;
28170;SDS011;15458;53.346;-1.688;2022-11-04T04:35:51;13.40;;;5.22;;
28170;SDS011;15458;53.346;-1.688;2022-11-04T04:38:27;13.73;;;4.50;;
28170;SDS011;15458;53.346;-1.688;2022-11-04T04:41:27;19.42;;;5.60;;
28170;SDS011;15458;53.346;-1.688;2022-11-04T04:44:24;17.13;;;4.65;;
28170;SDS011;15458;53.346;-1.688;2022-11-04T04:47:10;14.98;;;4.55;;
28170;SDS011;15458;53.346;-1.688;2022-11-04T04:49:58;10.82;;;4.45;;
28170;SDS011;15458;53.346;-1.688;2022-11-04T04:52:25;11.18;;;4.30;;
28170;SDS011;15458;53.346;-1.688;2022-11-04T04:54:53;15.63;;;4.50;;
28170;SDS011;15458;53.346;-1.688;2022-11-04T04:57:18;14.93;;;4.45;;
28170;SDS011;15458;53.346;-1.688;2022-11-04T04:59:44;20.73;;;4.82;;
28170;SDS011;15458;53.346;-1.688;2022-11-04T05:02:10;14.40;;;4.72;;
28170;SDS011;15458;53.346;-1.688;2022-11-04T05:04:35;11.55;;;5.30;;
28170;SDS011;15458;53.346;-1.688;2022-11-04T05:07:01;15.82;;;5.55;;
28170;SDS011;15458;53.346;-1.688;2022-11-04T05:09:27;17.23;;;5.32;;
28170;SDS011;15458;53.346;-1.688;2022-11-04T05:11:52;15.80;;;5.78;;
28170;SDS011;15458;53.346;-1.688;2022-11-04T05:14:18;15.50;;;6.28;;
28170;SDS011;15458;53.346;-1.688;2022-11-04T05:16:44;16.58;;;5.15;;
28170;SDS011;15458;53.346;-1.688;2022-11-04T05:19:09;15.10;;;4.93;;
28170;SDS011;15458;53.346;-1.688;2022-11-04T05:21:35;18.35;;;6.13;;
28170;SDS011;15458;53.346;-1.688;2022-11-04T05:24:01;11.80;;;4.25;;
28170;SDS011;15458;53.346;-1.688;2022-11-04T05:26:26;13.48;;;5.32;;
28170;SDS011;15458;53.346;-1.688;2022-11-04T05:28:52;17.50;;;4.70;;
28170;SDS011;15458;53.346;-1.688;2022-11-04T05:31:18;14.82;;;4.90;;
28170;SDS011;15458;53.346;-1.688;2022-11-04T05:33:44;15.25;;;4.63;;
28170;SDS011;15458;53.346;-1.688;2022-11-04T05:36:10;12.85;;;4.70;;
28170;SDS011;15458;53.346;-1.688;2022-11-04T05:38:38;16.58;;;5.38;;
28170;SDS011;15458;53.346;-1.688;2022-11-04T05:41:04;13.73;;;5.05;;
28170;SDS011;15458;53.346;-1.688;2022-11-04T05:43:32;13.45;;;4.78;;
28170;SDS011;15458;53.346;-1.688;2022-11-04T05:45:58;16.55;;;5.00;;
28170;SDS011;15458;53.346;-1.688;2022-11-04T05:48:24;11.50;;;4.40;;
28170;SDS011;15458;53.346;-1.688;2022-11-04T05:50:50;11.63;;;4.88;;
28170;SDS011;15458;53.346;-1.688;2022-11-04T05:53:16;13.15;;;4.90;;
28170;SDS011;15458;53.346;-1.688;2022-11-04T05:55:42;14.38;;;4.50;;
28170;SDS011;15458;53.346;-1.688;2022-11-04T05:58:08;14.07;;;4.25;;
28170;SDS011;15458;53.346;-1.688;2022-11-04T06:00:34;11.00;;;3.75;;
28170;SDS011;15458;53.346;-1.688;2022-11-04T06:02:59;12.27;;;4.20;;
28170;SDS011;15458;53.346;-1.688;2022-11-04T06:05:25;12.68;;;4.13;;
28170;SDS011;15458;53.346;-1.688;2022-11-04T06:07:52;13.63;;;4.30;;
28170;SDS011;15458;53.346;-1.688;2022-11-04T06:10:18;13.18;;;3.65;;
28170;SDS011;15458;53.346;-1.688;2022-11-04T06:12:45;13.80;;;4.22;;
28170;SDS011;15458;53.346;-1.688;2022-11-04T06:15:10;11.43;;;3.30;;
28170;SDS011;15458;53.346;-1.688;2022-11-04T06:17:36;12.50;;;3.58;;
28170;SDS011;15458;53.346;-1.688;2022-11-04T06:20:02;10.40;;;3.53;;
28170;SDS011;15458;53.346;-1.688;2022-11-04T06:22:29;8.50;;;3.67;;
28170;SDS011;15458;53.346;-1.688;2022-11-04T06:24:54;11.95;;;3.38;;
28170;SDS011;15458;53.346;-1.688;2022-11-04T06:27:20;9.15;;;3.45;;
28170;SDS011;15458;53.346;-1.688;2022-11-04T06:29:46;12.52;;;3.30;;
28170;SDS011;15458;53.346;-1.688;2022-11-04T06:32:13;10.85;;;3.65;;
28170;SDS011;15458;53.346;-1.688;2022-11-04T06:34:40;9.07;;;2.85;;
28170;SDS011;15458;53.346;-1.688;2022-11-04T06:37:06;12.48;;;3.20;;
28170;SDS011;15458;53.346;-1.688;2022-11-04T06:39:32;10.73;;;3.47;;
28170;SDS011;15458;53.346;-1.688;2022-11-04T06:41:58;10.90;;;3.63;;
28170;SDS011;15458;53.346;-1.688;2022-11-04T06:44:24;9.65;;;3.17;;
28170;SDS011;15458;53.346;-1.688;2022-11-04T06:46:49;8.30;;;3.50;;
28170;SDS011;15458;53.346;-1.688;2022-11-04T06:49:16;8.38;;;3.05;;
28170;SDS011;15458;53.346;-1.688;2022-11-04T06:51:44;10.65;;;3.55;;
28170;SDS011;15458;53.346;-1.688;2022-11-04T06:54:10;10.00;;;2.80;;
28170;SDS011;15458;53.346;-1.688;2022-11-04T06:56:36;14.18;;;3.38;;
28170;SDS011;15458;53.346;-1.688;2022-11-04T06:59:02;10.18;;;3.53;;
28170;SDS011;15458;53.346;-1.688;2022-11-04T07:01:29;12.90;;;3.63;;
28170;SDS011;15458;53.346;-1.688;2022-11-04T07:03:58;10.00;;;3.15;;
28170;SDS011;15458;53.346;-1.688;2022-11-04T07:06:25;7.28;;;2.97;;
28170;SDS011;15458;53.346;-1.688;2022-11-04T07:08:54;8.60;;;3.00;;
28170;SDS011;15458;53.346;-1.688;2022-11-04T07:11:22;14.05;;;4.00;;
28170;SDS011;15458;53.346;-1.688;2022-11-04T07:13:49;9.57;;;3.17;;
28170;SDS011;15458;53.346;-1.688;2022-11-04T07:16:15;6.65;;;3.65;;
28170;SDS011;15458;53.346;-1.688;2022-11-04T07:18:41;11.82;;;3.30;;
28170;SDS011;15458;53.346;-1.688;2022-11-04T07:21:07;7.53;;;3.28;;
28170;SDS011;15458;53.346;-1.688;2022-11-04T07:23:33;11.90;;;3.83;;
28170;SDS011;15458;53.346;-1.688;2022-11-04T07:26:03;9.18;;;3.25;;
28170;SDS011;15458;53.346;-1.688;2022-11-04T07:28:31;8.52;;;3.42;;
28170;SDS011;15458;53.346;-1.688;2022-11-04T07:30:57;13.38;;;3.97;;
28170;SDS011;15458;53.346;-1.688;2022-11-04T07:33:24;10.77;;;3.85;;
28170;SDS011;15458;53.346;-1.688;2022-11-04T07:35:51;11.25;;;3.75;;
28170;SDS011;15458;53.346;-1.688;2022-11-04T07:38:20;9.68;;;4.05;;
28170;SDS011;15458;53.346;-1.688;2022-11-04T07:40:46;10.73;;;4.38;;
28170;SDS011;15458;53.346;-1.688;2022-11-04T07:43:13;14.40;;;4.95;;
28170;SDS011;15458;53.346;-1.688;2022-11-04T07:45:40;13.93;;;5.55;;
28170;SDS011;15458;53.346;-1.688;2022-11-04T07:48:05;11.70;;;4.13;;
28170;SDS011;15458;53.346;-1.688;2022-11-04T07:50:32;17.90;;;5.97;;
28170;SDS011;15458;53.346;-1.688;2022-11-04T07:52:58;16.90;;;5.78;;
28170;SDS011;15458;53.346;-1.688;2022-11-04T07:55:24;22.38;;;5.60;;
28170;SDS011;15458;53.346;-1.688;2022-11-04T07:57:50;19.25;;;7.03;;
28170;SDS011;15458;53.346;-1.688;2022-11-04T08:00:18;15.80;;;5.57;;
28170;SDS011;15458;53.346;-1.688;2022-11-04T08:02:45;16.58;;;6.35;;
28170;SDS011;15458;53.346;-1.688;2022-11-04T08:05:12;13.38;;;4.75;;
28170;SDS011;15458;53.346;-1.688;2022-11-04T08:07:39;20.15;;;5.50;;
28170;SDS011;15458;53.346;-1.688;2022-11-04T08:10:06;11.30;;;5.05;;
28170;SDS011;15458;53.346;-1.688;2022-11-04T08:12:34;12.48;;;6.20;;
28170;SDS011;15458;53.346;-1.688;2022-11-04T08:14:59;19.13;;;6.15;;
28170;SDS011;15458;53.346;-1.688;2022-11-04T08:17:25;13.32;;;4.38;;
28170;SDS011;15458;53.346;-1.688;2022-11-04T08:19:51;17.63;;;5.15;;
28170;SDS011;15458;53.346;-1.688;2022-11-04T08:22:16;11.30;;;4.72;;
28170;SDS011;15458;53.346;-1.688;2022-11-04T08:24:42;14.52;;;4.60;;
28170;SDS011;15458;53.346;-1.688;2022-11-04T08:27:11;14.05;;;4.22;;
28170;SDS011;15458;53.346;-1.688;2022-11-04T08:29:37;16.40;;;5.13;;
28170;SDS011;15458;53.346;-1.688;2022-11-04T08:32:03;16.05;;;4.50;;
28170;SDS011;15458;53.346;-1.688;2022-11-04T08:34:28;19.98;;;6.70;;
28170;SDS011;15458;53.346;-1.688;2022-11-04T08:36:54;13.88;;;5.18;;
28170;SDS011;15458;53.346;-1.688;2022-11-04T08:39:22;20.38;;;6.43;;
28170;SDS011;15458;53.346;-1.688;2022-11-04T08:41:48;16.00;;;5.28;;
28170;SDS011;15458;53.346;-1.688;2022-11-04T08:44:15;18.38;;;6.45;;
28170;SDS011;15458;53.346;-1.688;2022-11-04T08:46:41;19.30;;;5.97;;
28170;SDS011;15458;53.346;-1.688;2022-11-04T08:49:08;18.13;;;6.50;;
28170;SDS011;15458;53.346;-1.688;2022-11-04T08:51:35;15.70;;;5.57;;
28170;SDS011;15458;53.346;-1.688;2022-11-04T08:54:02;21.35;;;5.82;;
28170;SDS011;15458;53.346;-1.688;2022-11-04T08:56:30;21.05;;;5.07;;
28170;SDS011;15458;53.346;-1.688;2022-11-04T08:58:58;13.80;;;5.50;;
28170;SDS011;15458;53.346;-1.688;2022-11-04T09:01:27;16.83;;;5.60;;
28170;SDS011;15458;53.346;-1.688;2022-11-04T09:03:53;14.38;;;4.90;;
28170;SDS011;15458;53.346;-1.688;2022-11-04T09:06:24;16.25;;;5.40;;
28170;SDS011;15458;53.346;-1.688;2022-11-04T09:08:53;14.82;;;4.95;;
28170;SDS011;15458;53.346;-1.688;2022-11-04T09:11:22;13.73;;;4.95;;
28170;SDS011;15458;53.346;-1.688;2022-11-04T09:13:47;16.45;;;4.90;;
28170;SDS011;15458;53.346;-1.688;2022-11-04T09:16:13;11.82;;;3.80;;
28170;SDS011;15458;53.346;-1.688;2022-11-04T09:18:40;9.70;;;2.78;;
28170;SDS011;15458;53.346;-1.688;2022-11-04T09:21:06;5.40;;;2.50;;
28170;SDS011;15458;53.346;-1.688;2022-11-04T09:23:33;10.63;;;2.30;;
28170;SDS011;15458;53.346;-1.688;2022-11-04T09:26:03;8.38;;;1.40;;
28170;SDS011;15458;53.346;-1.688;2022-11-04T09:28:37;7.13;;;1.40;;
28170;SDS011;15458;53.346;-1.688;2022-11-04T09:31:08;6.93;;;1.77;;
28170;SDS011;15458;53.346;-1.688;2022-11-04T09:33:39;4.35;;;1.67;;
28170;SDS011;15458;53.346;-1.688;2022-11-04T09:36:05;12.27;;;1.67;;
28170;SDS011;15458;53.346;-1.688;2022-11-04T09:38:33;5.40;;;1.67;;
28170;SDS011;15458;53.346;-1.688;2022-11-04T09:40:59;8.60;;;1.55;;
28170;SDS011;15458;53.346;-1.688;2022-11-04T09:43:44;8.55;;;1.58;;
28170;SDS011;15458;53.346;-1.688;2022-11-04T09:46:22;8.60;;;1.60;;
28170;SDS011;15458;53.346;-1.688;2022-11-04T09:48:52;8.63;;;1.63;;
28170;SDS011;15458;53.346;-1.688;2022-11-04T09:51:21;10.68;;;1.90;;
28170;SDS011;15458;53.346;-1.688;2022-11-04T09:53:53;10.57;;;3.35;;
28170;SDS011;15458;53.346;-1.688;2022-11-04T09:56:24;8.90;;;1.63;;
28170;SDS011;15458;53.346;-1.688;2022-11-04T09:58:56;2.38;;;1.10;;
28170;SDS011;15458;53.346;-1.688;2022-11-04T10:07:34;7.00;;;1.13;;
28170;SDS011;15458;53.346;-1.688;2022-11-04T10:25:57;8.57;;;1.45;;
28170;SDS011;15458;53.346;-1.688;2022-11-04T10:31:04;3.38;;;0.88;;
28170;SDS011;15458;53.346;-1.688;2022-11-04T10:33:36;7.43;;;2.15;;
28170;SDS011;15458;53.346;-1.688;2022-11-04T10:36:05;3.72;;;0.93;;
28170;SDS011;15458;53.346;-1.688;2022-11-04T10:38:43;5.10;;;0.93;;
28170;SDS011;15458;53.346;-1.688;2022-11-04T10:41:33;5.90;;;1.10;;
28170;SDS011;15458;53.346;-1.688;2022-11-04T10:44:05;3.88;;;0.82;;
28170;SDS011;15458;53.346;-1.688;2022-11-04T10:46:52;3.13;;;0.93;;
28170;SDS011;15458;53.346;-1.688;2022-11-04T10:49:37;3.63;;;1.00;;
28170;SDS011;15458;53.346;-1.688;2022-11-04T10:52:21;6.75;;;1.20;;
28170;SDS011;15458;53.346;-1.688;2022-11-04T10:54:48;4.93;;;1.00;;
28170;SDS011;15458;53.346;-1.688;2022-11-04T10:57:21;3.13;;;1.10;;
28170;SDS011;15458;53.346;-1.688;2022-11-04T10:59:53;3.60;;;1.30;;
28170;SDS011;15458;53.346;-1.688;2022-11-04T11:07:48;6.70;;;1.05;;
28170;SDS011;15458;53.346;-1.688;2022-11-04T11:12:49;4.15;;;1.02;;
28170;SDS011;15458;53.346;-1.688;2022-11-04T11:15:29;3.38;;;1.58;;
28170;SDS011;15458;53.346;-1.688;2022-11-04T11:18:05;3.70;;;1.20;;
28170;SDS011;15458;53.346;-1.688;2022-11-04T11:20:39;6.63;;;1.58;;
28170;SDS011;15458;53.346;-1.688;2022-11-04T11:23:31;5.60;;;1.02;;
28170;SDS011;15458;53.346;-1.688;2022-11-04T11:28:50;7.60;;;2.13;;
28170;SDS011;15458;53.346;-1.688;2022-11-04T11:31:20;5.75;;;1.45;;
28170;SDS011;15458;53.346;-1.688;2022-11-04T11:33:55;7.68;;;1.45;;
28170;SDS011;15458;53.346;-1.688;2022-11-04T11:36:27;5.28;;;1.40;;
28170;SDS011;15458;53.346;-1.688;2022-11-04T11:39:12;5.22;;;1.38;;
28170;SDS011;15458;53.346;-1.688;2022-11-04T11:46:52;6.05;;;1.27;;
28170;SDS011;15458;53.346;-1.688;2022-11-04T11:49:25;5.57;;;1.33;;
28170;SDS011;15458;53.346;-1.688;2022-11-04T11:51:55;6.05;;;1.95;;
28170;SDS011;15458;53.346;-1.688;2022-11-04T11:54:48;4.93;;;1.42;;
28170;SDS011;15458;53.346;-1.688;2022-11-04T11:57:24;5.45;;;1.20;;
28170;SDS011;15458;53.346;-1.688;2022-11-04T11:59:56;6.60;;;1.85;;
28170;SDS011;15458;53.346;-1.688;2022-11-04T12:03:10;4.53;;;1.40;;
28170;SDS011;15458;53.346;-1.688;2022-11-04T12:13:36;4.60;;;1.40;;
28170;SDS011;15458;53.346;-1.688;2022-11-04T12:21:18;3.97;;;1.15;;
28170;SDS011;15458;53.346;-1.688;2022-11-04T12:26:32;5.10;;;1.40;;
28170;SDS011;15458;53.346;-1.688;2022-11-04T12:42:26;3.45;;;1.60;;
28170;SDS011;15458;53.346;-1.688;2022-11-04T12:52:35;5.45;;;2.03;;
28170;SDS011;15458;53.346;-1.688;2022-11-04T12:55:23;9.55;;;1.83;;
28170;SDS011;15458;53.346;-1.688;2022-11-04T12:58:15;5.45;;;1.90;;
28170;SDS011;15458;53.346;-1.688;2022-11-04T13:00:53;6.53;;;2.67;;
28170;SDS011;15458;53.346;-1.688;2022-11-04T13:03:33;5.80;;;1.63;;
28170;SDS011;15458;53.346;-1.688;2022-11-04T13:06:09;3.63;;;1.60;;
28170;SDS011;15458;53.346;-1.688;2022-11-04T13:08:51;5.15;;;1.73;;
28170;SDS011;15458;53.346;-1.688;2022-11-04T13:11:30;4.15;;;1.50;;
28170;SDS011;15458;53.346;-1.688;2022-11-04T13:14:13;3.47;;;1.48;;
28170;SDS011;15458;53.346;-1.688;2022-11-04T13:16:43;4.80;;;1.33;;
28170;SDS011;15458;53.346;-1.688;2022-11-04T13:21:47;4.18;;;1.73;;
28170;SDS011;15458;53.346;-1.688;2022-11-04T13:29:22;4.53;;;1.23;;
28170;SDS011;15458;53.346;-1.688;2022-11-04T13:34:46;3.60;;;1.15;;
28170;SDS011;15458;53.346;-1.688;2022-11-04T13:37:25;2.80;;;1.45;;
28170;SDS011;15458;53.346;-1.688;2022-11-04T13:42:56;2.85;;;1.13;;
28170;SDS011;15458;53.346;-1.688;2022-11-04T13:45:54;2.07;;;1.07;;
28170;SDS011;15458;53.346;-1.688;2022-11-04T13:48:22;3.50;;;1.08;;
28170;SDS011;15458;53.346;-1.688;2022-11-04T13:51:07;4.50;;;1.30;;
28170;SDS011;15458;53.346;-1.688;2022-11-04T13:53:49;1.50;;;1.13;;
28170;SDS011;15458;53.346;-1.688;2022-11-04T13:59:01;4.20;;;1.38;;
28170;SDS011;15458;53.346;-1.688;2022-11-04T14:01:45;5.10;;;0.85;;
28170;SDS011;15458;53.346;-1.688;2022-11-04T14:06:48;2.47;;;0.98;;
28170;SDS011;15458;53.346;-1.688;2022-11-04T14:14:43;4.82;;;1.05;;
28170;SDS011;15458;53.346;-1.688;2022-11-04T14:22:31;3.33;;;0.52;;
28170;SDS011;15458;53.346;-1.688;2022-11-04T14:25:01;0.90;;;0.40;;
28170;SDS011;15458;53.346;-1.688;2022-11-04T14:27:53;2.40;;;0.50;;
28170;SDS011;15458;53.346;-1.688;2022-11-04T14:32:55;4.10;;;0.73;;
28170;SDS011;15458;53.346;-1.688;2022-11-04T14:35:25;3.13;;;0.53;;
28170;SDS011;15458;53.346;-1.688;2022-11-04T14:37:53;1.95;;;0.55;;
28170;SDS011;15458;53.346;-1.688;2022-11-04T14:40:27;3.22;;;0.68;;
28170;SDS011;15458;53.346;-1.688;2022-11-04T14:43:30;5.95;;;0.95;;
28170;SDS011;15458;53.346;-1.688;2022-11-04T14:46:00;2.47;;;0.63;;
28170;SDS011;15458;53.346;-1.688;2022-11-04T14:48:29;2.22;;;0.50;;
28170;SDS011;15458;53.346;-1.688;2022-11-04T14:50:56;3.20;;;0.68;;
28170;SDS011;15458;53.346;-1.688;2022-11-04T14:53:24;4.65;;;0.80;;
28170;SDS011;15458;53.346;-1.688;2022-11-04T14:56:29;7.35;;;0.90;;
28170;SDS011;15458;53.346;-1.688;2022-11-04T14:58:55;7.30;;;1.88;;
28170;SDS011;15458;53.346;-1.688;2022-11-04T15:01:23;3.65;;;0.75;;
28170;SDS011;15458;53.346;-1.688;2022-11-04T15:03:51;5.72;;;1.08;;
28170;SDS011;15458;53.346;-1.688;2022-11-04T15:06:26;5.93;;;0.80;;
28170;SDS011;15458;53.346;-1.688;2022-11-04T15:08:54;5.63;;;0.60;;
28170;SDS011;15458;53.346;-1.688;2022-11-04T15:11:22;2.17;;;0.60;;
28170;SDS011;15458;53.346;-1.688;2022-11-04T15:14:16;4.00;;;0.98;;
28170;SDS011;15458;53.346;-1.688;2022-11-04T15:16:46;4.40;;;0.73;;
28170;SDS011;15458;53.346;-1.688;2022-11-04T15:19:33;6.40;;;0.95;;
28170;SDS011;15458;53.346;-1.688;2022-11-04T15:22:00;4.07;;;1.00;;
28170;SDS011;15458;53.346;-1.688;2022-11-04T15:24:28;5.47;;;1.05;;
28170;SDS011;15458;53.346;-1.688;2022-11-04T15:26:57;3.63;;;0.70;;
28170;SDS011;15458;53.346;-1.688;2022-11-04T15:29:27;5.93;;;0.85;;
28170;SDS011;15458;53.346;-1.688;2022-11-04T15:34:20;3.10;;;0.60;;
28170;SDS011;15458;53.346;-1.688;2022-11-04T15:36:46;3.92;;;0.52;;
28170;SDS011;15458;53.346;-1.688;2022-11-04T15:39:19;5.35;;;0.80;;
28170;SDS011;15458;53.346;-1.688;2022-11-04T15:42:00;2.47;;;0.77;;
28170;SDS011;15458;53.346;-1.688;2022-11-04T15:44:52;5.22;;;0.70;;
28170;SDS011;15458;53.346;-1.688;2022-11-04T15:47:24;3.15;;;0.75;;
28170;SDS011;15458;53.346;-1.688;2022-11-04T15:50:00;4.30;;;0.85;;
28170;SDS011;15458;53.346;-1.688;2022-11-04T15:52:38;3.97;;;0.55;;
28170;SDS011;15458;53.346;-1.688;2022-11-04T15:55:18;1.42;;;0.70;;
28170;SDS011;15458;53.346;-1.688;2022-11-04T15:57:45;5.45;;;0.90;;
28170;SDS011;15458;53.346;-1.688;2022-11-04T16:02:47;4.75;;;0.57;;
28170;SDS011;15458;53.346;-1.688;2022-11-04T16:07:46;6.50;;;1.63;;
28170;SDS011;15458;53.346;-1.688;2022-11-04T16:13:31;4.80;;;1.95;;
28170;SDS011;15458;53.346;-1.688;2022-11-04T16:18:06;11.00;;;0.90;;
28170;SDS011;15458;53.346;-1.688;2022-11-04T16:20:50;8.13;;;1.23;;
28170;SDS011;15458;53.346;-1.688;2022-11-04T16:23:19;3.42;;;0.77;;
28170;SDS011;15458;53.346;-1.688;2022-11-04T16:25:53;2.00;;;0.98;;
28170;SDS011;15458;53.346;-1.688;2022-11-04T16:28:22;3.35;;;1.10;;
28170;SDS011;15458;53.346;-1.688;2022-11-04T16:30:55;6.68;;;1.27;;
28170;SDS011;15458;53.346;-1.688;2022-11-04T16:33:21;9.05;;;1.55;;
28170;SDS011;15458;53.346;-1.688;2022-11-04T16:35:47;8.68;;;1.42;;
28170;SDS011;15458;53.346;-1.688;2022-11-04T16:38:12;4.00;;;1.00;;
28170;SDS011;15458;53.346;-1.688;2022-11-04T16:40:38;3.05;;;0.80;;
28170;SDS011;15458;53.346;-1.688;2022-11-04T16:43:05;8.13;;;1.63;;
28170;SDS011;15458;53.346;-1.688;2022-11-04T16:45:33;8.65;;;1.48;;
28170;SDS011;15458;53.346;-1.688;2022-11-04T16:48:00;8.57;;;1.30;;
28170;SDS011;15458;53.346;-1.688;2022-11-04T16:50:26;6.40;;;1.50;;
28170;SDS011;15458;53.346;-1.688;2022-11-04T16:52:53;7.22;;;1.15;;
28170;SDS011;15458;53.346;-1.688;2022-11-04T16:55:18;7.53;;;1.40;;
28170;SDS011;15458;53.346;-1.688;2022-11-04T16:57:46;8.05;;;2.45;;
28170;SDS011;15458;53.346;-1.688;2022-11-04T17:00:19;11.25;;;1.42;;
28170;SDS011;15458;53.346;-1.688;2022-11-04T17:02:49;5.40;;;1.70;;
28170;SDS011;15458;53.346;-1.688;2022-11-04T17:05:16;4.47;;;1.05;;
28170;SDS011;15458;53.346;-1.688;2022-11-04T17:07:43;5.63;;;1.15;;
28170;SDS011;15458;53.346;-1.688;2022-11-04T17:10:11;6.90;;;1.50;;
28170;SDS011;15458;53.346;-1.688;2022-11-04T17:12:42;9.25;;;1.77;;
28170;SDS011;15458;53.346;-1.688;2022-11-04T17:15:09;8.57;;;1.98;;
28170;SDS011;15458;53.346;-1.688;2022-11-04T17:17:35;10.55;;;1.48;;
28170;SDS011;15458;53.346;-1.688;2022-11-04T17:20:01;5.13;;;1.30;;
28170;SDS011;15458;53.346;-1.688;2022-11-04T17:22:26;8.18;;;1.20;;
28170;SDS011;15458;53.346;-1.688;2022-11-04T17:24:52;9.40;;;1.50;;
28170;SDS011;15458;53.346;-1.688;2022-11-04T17:27:17;5.20;;;1.92;;
28170;SDS011;15458;53.346;-1.688;2022-11-04T17:29:44;6.40;;;1.90;;
28170;SDS011;15458;53.346;-1.688;2022-11-04T17:32:10;7.05;;;2.08;;